Time;durP1;ratioP1;P1;durP2;ratioP2;P2;SDS_P1;SDS_P2;PMS_P1;PMS_P2;Temp;Humidity;BMP_temperature;BMP_pressure;BME280_temperature;BME280_humidity;BME280_pressure;Samples;Min_cycle;Max_cycle;Signal;HPM_P1;HPM_P2
2022/10/21 00:02:19;;;;;;;8.23;7.43;;;14.20;99.90;;;;;;5017508;28;20220;-84
2022/10/21 00:04:44;;;;;;;11.73;6.67;;;14.10;99.90;;;;;;5016221;28;20186;-81
2022/10/21 00:07:10;;;;;;;8.57;6.50;;;14.10;99.90;;;;;;5017610;28;20174;-82
2022/10/21 00:09:35;;;;;;;16.07;7.80;;;14.10;99.90;;;;;;5017413;28;20189;-82
2022/10/21 00:12:01;;;;;;;15.23;8.30;;;14.10;99.90;;;;;;5016837;28;20221;-81
2022/10/21 00:14:27;;;;;;;13.00;7.57;;;14.00;99.90;;;;;;5017450;28;20178;-82
2022/10/21 00:16:52;;;;;;;8.23;7.33;;;14.00;99.90;;;;;;5035089;28;20503;-82
2022/10/21 00:19:18;;;;;;;9.50;7.60;;;14.00;99.90;;;;;;5000746;28;20232;-83
2022/10/21 00:21:43;;;;;;;12.60;7.70;;;14.00;99.90;;;;;;5017645;28;20594;-81
2022/10/21 00:24:09;;;;;;;8.80;6.60;;;14.00;99.90;;;;;;5017662;28;20197;-82
2022/10/21 00:26:34;;;;;;;10.73;7.53;;;14.00;99.90;;;;;;5000695;28;20197;-82
2022/10/21 00:29:00;;;;;;;8.23;5.50;;;14.00;99.90;;;;;;5034941;28;20190;-82
2022/10/21 00:31:27;;;;;;;8.30;6.23;;;13.90;99.90;;;;;;5034874;28;20237;-82
2022/10/21 00:33:53;;;;;;;7.80;5.57;;;13.90;99.90;;;;;;5034911;28;20182;-81
2022/10/21 00:36:18;;;;;;;8.87;5.60;;;13.90;99.90;;;;;;5016991;28;20421;-81
2022/10/21 00:38:47;;;;;;;9.50;5.57;;;13.90;99.90;;;;;;5016924;28;20259;-82
2022/10/21 00:41:14;;;;;;;6.70;5.07;;;13.90;99.90;;;;;;5034757;28;20181;-82
2022/10/21 00:43:59;;;;;;;5.63;4.97;;;13.90;99.90;;;;;;5034477;28;20752;-81
2022/10/21 00:46:45;;;;;;;8.80;5.07;;;13.90;99.90;;;;;;5034913;28;20402;-82
2022/10/21 00:49:20;;;;;;;6.10;5.13;;;13.90;99.90;;;;;;5034515;28;20432;-82
2022/10/21 00:51:49;;;;;;;6.37;5.53;;;14.00;99.90;;;;;;5034349;28;20784;-82
2022/10/21 00:54:16;;;;;;;6.37;4.90;;;14.00;99.90;;;;;;5034467;28;20495;-82
2022/10/21 00:56:44;;;;;;;12.87;5.17;;;14.00;99.90;;;;;;5034185;28;20405;-82
2022/10/21 00:59:10;;;;;;;10.07;4.87;;;14.00;99.90;;;;;;5000266;28;20484;-82
2022/10/21 01:01:36;;;;;;;5.80;4.47;;;14.00;99.90;;;;;;5034235;28;20482;-83
2022/10/21 01:04:02;;;;;;;8.80;4.37;;;14.00;99.90;;;;;;5000333;28;20451;-82
2022/10/21 01:06:29;;;;;;;8.70;4.80;;;14.00;99.90;;;;;;5000489;28;20182;-82
2022/10/21 01:08:56;;;;;;;8.13;5.00;;;14.00;99.90;;;;;;5034054;28;20888;-82
2022/10/21 01:11:23;;;;;;;4.83;4.23;;;14.00;99.90;;;;;;5016136;28;20599;-82
2022/10/21 01:14:13;;;;;;;7.27;4.73;;;14.00;99.90;;;;;;5016435;28;20421;-82
2022/10/21 01:16:51;;;;;;;9.70;4.77;;;13.90;99.90;;;;;;5017659;28;20951;-82
2022/10/21 01:19:35;;;;;;;8.03;4.80;;;13.90;99.90;;;;;;5036512;28;21003;-82
2022/10/21 01:22:24;;;;;;;7.83;4.60;;;13.80;99.90;;;;;;5037388;28;20466;-82
2022/10/21 01:25:15;;;;;;;8.10;4.20;;;13.80;99.90;;;;;;4983507;28;20413;-82
2022/10/21 01:28:05;;;;;;;4.27;3.77;;;13.70;99.90;;;;;;5037566;28;20416;-82
2022/10/21 01:31:08;;;;;;;6.17;3.90;;;13.70;99.90;;;;;;5038019;28;20447;-82
2022/10/21 01:33:44;;;;;;;10.47;4.20;;;13.70;99.90;;;;;;5037675;28;20391;-83
2022/10/21 01:36:23;;;;;;;5.03;4.03;;;13.70;99.90;;;;;;5037168;28;20911;-82
2022/10/21 01:39:00;;;;;;;7.10;4.13;;;13.60;99.90;;;;;;5037723;28;20468;-82
2022/10/21 01:41:33;;;;;;;5.50;4.20;;;13.70;99.90;;;;;;5019746;28;20432;-81
2022/10/21 01:44:14;;;;;;;4.03;3.07;;;13.70;99.90;;;;;;5037182;28;20409;-82
2022/10/21 01:47:08;;;;;;;5.37;4.60;;;13.70;99.90;;;;;;5019375;28;20901;-84
2022/10/21 01:50:29;;;;;;;5.53;4.27;;;13.70;99.90;;;;;;5008475;28;20944;-85
2022/10/21 01:53:02;;;;;;;4.10;3.47;;;13.70;99.90;;;;;;5012469;28;20483;-82
2022/10/21 01:55:30;;;;;;;7.03;3.83;;;13.70;99.90;;;;;;5037560;28;20467;-82
2022/10/21 01:58:02;;;;;;;5.20;3.80;;;13.70;99.90;;;;;;5037380;28;20409;-82
2022/10/21 02:00:29;;;;;;;3.90;3.40;;;13.70;99.90;;;;;;5037663;28;20443;-82
2022/10/21 02:02:56;;;;;;;4.70;3.07;;;13.80;99.90;;;;;;5037311;28;20396;-82
2022/10/21 02:05:27;;;;;;;5.23;2.80;;;13.80;99.90;;;;;;5003153;28;20403;-82
2022/10/21 02:07:54;;;;;;;5.03;3.17;;;13.70;99.90;;;;;;5037379;28;20438;-82
2022/10/21 02:10:21;;;;;;;4.00;2.73;;;13.70;99.90;;;;;;5019765;28;20482;-82
2022/10/21 02:12:49;;;;;;;3.23;2.80;;;13.70;99.90;;;;;;5018994;28;20518;-82
2022/10/21 02:15:16;;;;;;;4.87;3.20;;;13.70;99.90;;;;;;5037171;28;20814;-81
2022/10/21 02:17:51;;;;;;;6.43;3.43;;;13.70;99.90;;;;;;5037370;28;20843;-82
2022/10/21 02:20:18;;;;;;;6.30;2.60;;;13.70;99.90;;;;;;5037502;28;20401;-82
2022/10/21 02:22:45;;;;;;;4.90;3.20;;;13.60;99.90;;;;;;5036766;28;20456;-81
2022/10/21 02:25:26;;;;;;;4.33;3.07;;;13.70;99.90;;;;;;5019411;28;20523;-81
2022/10/21 02:27:52;;;;;;;7.27;3.60;;;13.70;99.90;;;;;;5034563;28;20425;-81
2022/10/21 02:30:18;;;;;;;6.10;3.07;;;13.70;99.90;;;;;;5002366;28;20506;-82
2022/10/21 02:32:49;;;;;;;5.87;2.60;;;13.70;99.90;;;;;;5036292;28;20472;-82
2022/10/21 02:35:18;;;;;;;3.63;2.73;;;13.60;99.90;;;;;;5036961;28;20404;-82
2022/10/21 02:37:55;;;;;;;3.80;3.50;;;13.70;99.90;;;;;;5036523;28;20413;-81
2022/10/21 02:40:33;;;;;;;8.70;3.17;;;13.60;99.90;;;;;;5037218;28;20717;-82
2022/10/21 02:43:05;;;;;;;4.03;2.63;;;13.60;99.90;;;;;;5036746;28;20411;-82
2022/10/21 02:45:32;;;;;;;4.33;2.97;;;13.60;99.90;;;;;;5018383;28;20409;-81
2022/10/21 02:47:58;;;;;;;4.63;3.07;;;13.50;99.90;;;;;;5002207;28;20428;-82
2022/10/21 02:50:23;;;;;;;2.93;2.67;;;13.50;99.90;;;;;;5018755;28;20409;-82
2022/10/21 02:52:49;;;;;;;5.37;3.63;;;13.50;99.90;;;;;;5002096;28;20275;-82
2022/10/21 02:55:14;;;;;;;4.70;3.73;;;13.40;99.90;;;;;;4986314;28;20277;-81
2022/10/21 02:57:40;;;;;;;5.70;3.20;;;13.40;99.90;;;;;;4985910;28;20198;-81
2022/10/21 03:00:06;;;;;;;8.03;4.27;;;13.40;99.90;;;;;;5002464;28;20286;-81
2022/10/21 03:02:32;;;;;;;3.93;3.53;;;13.40;99.90;;;;;;5017394;28;20526;-82
2022/10/21 03:04:57;;;;;;;5.77;3.60;;;13.40;99.90;;;;;;4999949;28;20429;-82
2022/10/21 03:07:23;;;;;;;4.20;3.13;;;13.30;99.90;;;;;;5002309;28;20190;-81
2022/10/21 03:09:49;;;;;;;3.23;2.83;;;13.30;99.90;;;;;;5036429;28;20179;-82
2022/10/21 03:12:14;;;;;;;6.00;3.40;;;13.30;99.90;;;;;;5018223;28;20214;-82
2022/10/21 03:14:40;;;;;;;4.10;3.40;;;13.30;99.90;;;;;;5002405;28;20626;-82
2022/10/21 03:17:05;;;;;;;3.60;3.30;;;13.20;99.90;;;;;;5018235;28;20272;-82
2022/10/21 03:19:32;;;;;;;5.90;3.30;;;13.20;99.90;;;;;;5035503;28;20182;-82
2022/10/21 03:21:57;;;;;;;5.20;3.20;;;13.20;99.90;;;;;;5018225;28;20248;-81
2022/10/21 03:24:23;;;;;;;5.73;2.50;;;13.20;99.90;;;;;;5002222;28;20424;-81
2022/10/21 03:26:48;;;;;;;6.10;3.00;;;13.10;99.90;;;;;;5035558;28;20599;-81
2022/10/21 03:29:14;;;;;;;5.90;3.20;;;13.10;99.90;;;;;;5001591;28;20185;-81
2022/10/21 03:31:39;;;;;;;3.50;2.63;;;13.10;99.90;;;;;;5017922;28;20214;-90
2022/10/21 03:34:05;;;;;;;8.53;2.83;;;13.10;99.90;;;;;;5035332;28;20535;-82
2022/10/21 03:36:30;;;;;;;3.40;2.60;;;13.00;99.90;;;;;;5001686;28;20190;-81
2022/10/21 03:38:56;;;;;;;3.80;2.50;;;13.00;99.90;;;;;;5000758;28;20309;-82
2022/10/21 03:41:22;;;;;;;4.20;2.30;;;13.00;99.90;;;;;;5018163;28;20507;-82
2022/10/21 03:43:47;;;;;;;3.00;2.17;;;13.00;99.90;;;;;;5001101;28;20178;-82
2022/10/21 03:46:13;;;;;;;4.53;3.73;;;13.00;99.90;;;;;;5035147;28;20619;-82
2022/10/21 03:48:38;;;;;;;6.73;3.30;;;13.00;99.90;;;;;;5017332;28;20186;-81
2022/10/21 03:51:04;;;;;;;6.83;2.73;;;13.00;99.90;;;;;;5000780;28;20540;-81
2022/10/21 03:53:30;;;;;;;4.23;2.60;;;13.10;99.90;;;;;;5017296;28;20210;-82
2022/10/21 03:55:55;;;;;;;6.67;2.50;;;13.10;99.90;;;;;;5017347;28;20190;-81
2022/10/21 03:58:21;;;;;;;3.10;2.87;;;13.10;99.90;;;;;;5017381;28;20656;-82
2022/10/21 04:00:51;;;;;;;6.83;2.80;;;13.10;99.90;;;;;;5034730;28;20175;-82
2022/10/21 04:03:17;;;;;;;4.60;2.43;;;13.20;99.90;;;;;;5017296;28;20232;-82
2022/10/21 04:05:42;;;;;;;2.57;2.37;;;13.20;99.90;;;;;;5034819;28;20896;-83
2022/10/21 04:08:08;;;;;;;3.13;2.27;;;13.20;99.90;;;;;;5035109;28;20214;-82
2022/10/21 04:10:33;;;;;;;4.10;2.60;;;13.30;99.90;;;;;;5017552;28;20240;-82
2022/10/21 04:12:59;;;;;;;3.30;2.30;;;13.30;99.90;;;;;;5017097;28;20291;-82
2022/10/21 04:15:24;;;;;;;2.80;2.20;;;13.40;99.90;;;;;;5017372;28;20191;-82
2022/10/21 04:17:50;;;;;;;11.60;2.80;;;13.40;99.90;;;;;;5000480;28;20204;-81
2022/10/21 04:20:16;;;;;;;3.90;2.07;;;13.50;99.90;;;;;;5017101;28;20228;-81
2022/10/21 04:22:41;;;;;;;9.40;2.63;;;13.50;99.90;;;;;;5000802;28;20194;-81
2022/10/21 04:25:07;;;;;;;3.73;2.13;;;13.60;99.90;;;;;;5034609;28;20213;-82
2022/10/21 04:27:33;;;;;;;4.23;3.17;;;13.60;99.90;;;;;;5001216;28;20178;-81
2022/10/21 04:29:58;;;;;;;4.53;2.77;;;13.60;99.90;;;;;;5034770;28;20713;-81
2022/10/21 04:32:24;;;;;;;2.57;2.30;;;13.70;99.90;;;;;;5000845;28;20210;-81
2022/10/21 04:34:49;;;;;;;5.30;2.77;;;13.70;99.90;;;;;;5033257;28;20186;-81
2022/10/21 04:37:15;;;;;;;2.63;2.43;;;13.70;99.90;;;;;;5017227;28;20226;-82
2022/10/21 04:39:41;;;;;;;5.20;2.37;;;13.70;99.90;;;;;;5034867;28;20225;-82
2022/10/21 04:42:06;;;;;;;2.63;2.33;;;13.80;99.90;;;;;;5034725;28;20268;-83
2022/10/21 04:44:32;;;;;;;4.00;2.47;;;13.80;99.90;;;;;;5000222;28;20185;-82
2022/10/21 04:46:57;;;;;;;5.10;2.00;;;13.80;99.90;;;;;;5034540;28;20182;-82
2022/10/21 04:49:23;;;;;;;3.10;2.30;;;13.80;99.90;;;;;;5016677;28;20588;-82
2022/10/21 04:51:48;;;;;;;4.80;2.73;;;13.90;99.90;;;;;;5036134;28;20241;-83
2022/10/21 04:54:14;;;;;;;4.27;2.50;;;13.90;99.90;;;;;;5038715;28;20555;-82
2022/10/21 04:56:40;;;;;;;3.90;2.17;;;13.90;99.90;;;;;;5038400;28;20181;-83
2022/10/21 04:59:06;;;;;;;1.93;1.83;;;13.90;99.90;;;;;;5020472;28;20209;-83
2022/10/21 05:01:32;;;;;;;2.83;2.23;;;13.90;99.90;;;;;;5038337;28;20452;-83
2022/10/21 05:03:57;;;;;;;2.27;1.70;;;14.00;99.90;;;;;;5036910;28;20178;-82
2022/10/21 05:06:23;;;;;;;2.13;1.93;;;14.00;99.90;;;;;;5004439;28;20186;-82
2022/10/21 05:08:49;;;;;;;3.20;2.23;;;14.00;99.90;;;;;;5038108;28;20174;-83
2022/10/21 05:11:14;;;;;;;5.90;2.23;;;14.10;99.90;;;;;;5038026;28;20186;-83
2022/10/21 05:13:40;;;;;;;3.27;2.23;;;14.10;99.90;;;;;;5036938;28;20182;-83
2022/10/21 05:16:06;;;;;;;3.10;1.97;;;14.10;99.90;;;;;;5038143;28;20580;-82
2022/10/21 05:18:31;;;;;;;4.67;2.40;;;14.10;99.90;;;;;;5003625;28;20303;-82
2022/10/21 05:20:57;;;;;;;6.20;2.60;;;14.10;99.90;;;;;;5020131;28;20421;-83
2022/10/21 05:23:24;;;;;;;4.03;2.30;;;14.10;99.90;;;;;;5037685;28;20190;-82
2022/10/21 05:25:50;;;;;;;3.30;2.03;;;14.10;99.90;;;;;;5019937;28;20428;-83
2022/10/21 05:28:17;;;;;;;3.83;2.37;;;14.20;99.90;;;;;;5036687;28;20444;-83
2022/10/21 05:30:42;;;;;;;3.50;2.20;;;14.20;99.90;;;;;;5037707;28;20428;-83
2022/10/21 05:33:08;;;;;;;2.57;1.90;;;14.20;99.90;;;;;;5037503;28;20468;-83
2022/10/21 05:35:34;;;;;;;2.83;2.03;;;14.20;99.90;;;;;;5003706;28;20178;-83
2022/10/21 05:38:00;;;;;;;6.23;3.00;;;14.30;99.90;;;;;;5037061;28;20818;-83
2022/10/21 05:40:25;;;;;;;4.73;3.07;;;14.20;99.90;;;;;;5020008;28;20171;-83
2022/10/21 05:42:51;;;;;;;5.43;2.53;;;14.20;99.90;;;;;;5003636;28;20179;-83
2022/10/21 05:45:16;;;;;;;5.03;2.83;;;14.30;99.90;;;;;;5019997;28;20205;-83
2022/10/21 05:47:42;;;;;;;7.73;3.90;;;14.30;99.90;;;;;;5019818;28;20541;-83
2022/10/21 05:50:10;;;;;;;6.90;3.63;;;14.30;99.90;;;;;;5019611;28;20182;-83
2022/10/21 05:52:36;;;;;;;4.77;3.70;;;14.30;99.90;;;;;;5037449;28;20468;-83
2022/10/21 05:55:01;;;;;;;10.00;3.43;;;14.30;99.90;;;;;;5036893;28;20413;-83
2022/10/21 05:57:27;;;;;;;7.80;4.13;;;14.30;99.90;;;;;;5003452;28;20412;-83
2022/10/21 05:59:52;;;;;;;8.90;4.17;;;14.20;99.90;;;;;;5035457;28;20193;-83
2022/10/21 06:02:18;;;;;;;7.20;4.70;;;14.20;99.90;;;;;;5019120;28;20208;-83
2022/10/21 06:04:43;;;;;;;6.87;4.50;;;14.30;99.90;;;;;;5002879;28;20657;-83
2022/10/21 06:07:09;;;;;;;5.53;3.90;;;14.20;99.90;;;;;;5036738;28;20209;-83
2022/10/21 06:09:36;;;;;;;4.70;2.83;;;14.20;99.90;;;;;;5018963;28;20182;-84
2022/10/21 06:12:02;;;;;;;7.07;3.30;;;14.30;99.90;;;;;;5002459;28;20217;-83
2022/10/21 06:14:27;;;;;;;5.93;4.10;;;14.20;99.90;;;;;;5036974;28;20844;-83
2022/10/21 06:16:53;;;;;;;6.70;3.50;;;14.10;99.90;;;;;;5002531;28;20696;-83
2022/10/21 06:19:19;;;;;;;8.10;5.00;;;14.10;99.90;;;;;;5036350;28;20187;-83
2022/10/21 06:21:46;;;;;;;10.77;4.20;;;14.10;99.90;;;;;;5036252;28;20190;-81
2022/10/21 06:24:11;;;;;;;4.90;4.40;;;14.10;99.90;;;;;;5018364;28;20261;-81
2022/10/21 06:26:37;;;;;;;8.70;5.50;;;14.10;99.90;;;;;;5035155;28;20451;-81
2022/10/21 06:29:02;;;;;;;12.93;6.20;;;14.10;99.90;;;;;;5036453;28;20202;-81
2022/10/21 06:31:28;;;;;;;6.30;5.00;;;14.10;99.90;;;;;;5018836;28;20293;-82
2022/10/21 06:33:53;;;;;;;9.13;5.33;;;14.10;99.90;;;;;;5036287;28;20534;-83
2022/10/21 06:36:19;;;;;;;7.60;4.57;;;14.10;99.90;;;;;;4994159;28;20186;-83
2022/10/21 06:38:45;;;;;;;8.60;4.80;;;14.10;99.90;;;;;;5018008;28;20238;-82
2022/10/21 06:41:12;;;;;;;10.90;5.00;;;14.10;99.90;;;;;;5035701;28;20248;-82
2022/10/21 06:43:38;;;;;;;8.77;5.77;;;14.20;99.90;;;;;;5018851;28;20174;-83
2022/10/21 06:46:07;;;;;;;8.17;5.10;;;14.20;99.90;;;;;;5018596;28;20734;-82
2022/10/21 06:48:33;;;;;;;7.70;4.50;;;14.30;99.90;;;;;;5035969;28;20657;-83
2022/10/21 06:51:07;;;;;;;8.33;4.50;;;14.30;99.90;;;;;;5036118;28;20405;-82
2022/10/21 06:53:34;;;;;;;5.03;3.43;;;14.30;99.90;;;;;;5017965;28;20443;-82
2022/10/21 06:56:08;;;;;;;7.90;4.10;;;14.40;99.90;;;;;;5035452;28;20401;-82
2022/10/21 06:58:34;;;;;;;6.33;4.20;;;14.40;99.90;;;;;;5018272;28;20425;-82
2022/10/21 07:01:08;;;;;;;6.33;3.93;;;14.50;99.90;;;;;;5018303;28;20451;-82
2022/10/21 07:03:33;;;;;;;4.80;3.50;;;14.50;99.90;;;;;;5018006;28;20406;-83
2022/10/21 07:06:00;;;;;;;8.13;3.90;;;14.60;99.90;;;;;;5018026;28;20507;-83
2022/10/21 07:08:28;;;;;;;7.60;3.90;;;14.70;99.90;;;;;;5036051;28;20236;-83
2022/10/21 07:10:53;;;;;;;7.63;4.07;;;14.70;99.90;;;;;;5018395;28;20444;-85
2022/10/21 07:13:19;;;;;;;4.90;3.87;;;14.70;99.90;;;;;;5001819;28;20910;-83
2022/10/21 07:15:45;;;;;;;7.77;3.57;;;14.80;99.90;;;;;;5017459;28;20185;-83
2022/10/21 07:18:11;;;;;;;8.77;3.87;;;14.80;99.90;;;;;;5035602;28;20417;-83
2022/10/21 07:20:36;;;;;;;9.37;3.87;;;14.80;99.90;;;;;;5017744;28;20178;-83
2022/10/21 07:23:02;;;;;;;11.90;4.67;;;14.80;99.90;;;;;;5001728;28;20276;-80
2022/10/21 07:25:27;;;;;;;9.20;4.07;;;14.90;99.90;;;;;;5036092;28;20182;-82
2022/10/21 07:27:53;;;;;;;4.27;3.60;;;14.80;99.90;;;;;;5035504;28;20190;-84
2022/10/21 07:30:19;;;;;;;6.40;3.63;;;14.80;99.90;;;;;;5001694;28;20267;-80
2022/10/21 07:32:44;;;;;;;9.77;4.70;;;14.70;99.90;;;;;;5001655;28;20217;-81
2022/10/21 07:35:10;;;;;;;9.53;4.30;;;14.70;99.90;;;;;;5034838;28;20181;-81
2022/10/21 07:37:35;;;;;;;6.10;3.97;;;14.70;99.90;;;;;;5001604;28;20182;-81
2022/10/21 07:40:01;;;;;;;5.63;4.70;;;14.60;99.90;;;;;;5000996;28;20233;-81
2022/10/21 07:42:27;;;;;;;8.33;5.10;;;14.60;99.90;;;;;;5035237;28;20202;-80
2022/10/21 07:44:58;;;;;;;6.30;4.60;;;14.60;99.90;;;;;;5001616;28;20250;-79
2022/10/21 07:47:24;;;;;;;9.63;5.30;;;14.60;99.90;;;;;;5018864;28;20412;-80
2022/10/21 07:49:50;;;;;;;5.40;4.40;;;14.60;99.90;;;;;;5035057;28;20444;-80
2022/10/21 07:52:16;;;;;;;9.87;6.30;;;14.60;99.90;;;;;;5017325;28;20475;-80
2022/10/21 07:54:42;;;;;;;8.30;5.53;;;14.60;99.90;;;;;;5017442;28;20412;-81
2022/10/21 07:57:07;;;;;;;7.30;5.47;;;14.60;99.90;;;;;;5034469;28;20435;-81
2022/10/21 07:59:33;;;;;;;10.27;4.97;;;14.60;99.90;;;;;;5017747;28;20174;-80
2022/10/21 08:01:58;;;;;;;6.07;4.27;;;14.60;99.90;;;;;;4984414;28;20602;-82
2022/10/21 08:04:28;;;;;;;11.37;5.40;;;14.60;99.90;;;;;;5001067;28;20204;-82
2022/10/21 08:06:55;;;;;;;6.63;5.00;;;14.60;99.90;;;;;;5017776;28;20224;-84
2022/10/21 08:09:21;;;;;;;9.13;6.00;;;14.60;99.90;;;;;;5016777;28;20399;-83
2022/10/21 08:11:47;;;;;;;12.63;5.67;;;14.60;99.90;;;;;;5000338;28;20461;-84
2022/10/21 08:14:13;;;;;;;11.60;5.67;;;14.60;99.90;;;;;;5034068;28;20409;-84
2022/10/21 08:16:39;;;;;;;5.83;5.17;;;14.60;99.90;;;;;;5034532;28;20646;-83
2022/10/21 08:19:05;;;;;;;11.20;5.70;;;14.70;99.90;;;;;;5016367;28;20515;-83
2022/10/21 08:21:32;;;;;;;9.90;5.37;;;14.60;99.90;;;;;;5016530;28;20773;-83
2022/10/21 08:24:02;;;;;;;12.70;7.43;;;14.70;99.90;;;;;;5034262;28;20499;-87
2022/10/21 08:26:27;;;;;;;9.10;5.90;;;14.70;99.90;;;;;;5015407;28;20429;-83
2022/10/21 08:28:53;;;;;;;6.33;5.73;;;14.70;99.90;;;;;;5000255;28;20436;-83
2022/10/21 08:31:20;;;;;;;7.70;6.33;;;14.70;99.90;;;;;;5000005;28;20286;-83
2022/10/21 08:33:47;;;;;;;8.20;6.13;;;14.70;99.90;;;;;;5000372;28;20182;-83
2022/10/21 08:36:19;;;;;;;8.87;6.23;;;14.80;99.90;;;;;;5016987;28;20448;-83
2022/10/21 08:38:44;;;;;;;8.97;6.03;;;14.80;99.90;;;;;;5015139;28;20464;-84
2022/10/21 08:41:39;;;;;;;8.43;5.33;;;14.80;99.90;;;;;;5030084;28;20421;-83
2022/10/21 08:44:09;;;;;;;9.10;5.23;;;14.80;99.90;;;;;;4979194;28;20436;-84
2022/10/21 08:47:11;;;;;;;8.57;5.10;;;14.80;99.90;;;;;;5030391;28;20405;-87
2022/10/21 08:50:00;;;;;;;5.80;4.77;;;14.80;99.90;;;;;;5012547;28;20523;-86
2022/10/21 08:52:37;;;;;;;9.50;5.20;;;14.80;99.90;;;;;;5033312;28;20453;-84
2022/10/21 08:55:11;;;;;;;6.80;5.13;;;14.80;99.90;;;;;;5033674;28;20401;-83
2022/10/21 08:57:37;;;;;;;7.57;4.67;;;14.80;99.90;;;;;;5034005;28;20771;-82
2022/10/21 09:00:15;;;;;;;10.80;4.80;;;14.90;99.90;;;;;;5016312;28;20401;-83
2022/10/21 09:03:17;;;;;;;8.67;4.50;;;14.90;99.90;;;;;;5016509;28;20566;-82
2022/10/21 09:06:11;;;;;;;6.87;4.10;;;14.90;99.90;;;;;;5016373;28;20416;-82
2022/10/21 09:09:09;;;;;;;7.07;4.30;;;15.00;99.90;;;;;;5034144;28;20546;-83
2022/10/21 09:11:54;;;;;;;7.43;4.17;;;14.90;99.90;;;;;;5015238;28;20465;-89
2022/10/21 09:14:26;;;;;;;7.70;3.77;;;14.90;99.90;;;;;;5012568;28;20482;-87
2022/10/21 09:17:13;;;;;;;9.00;7.00;;;14.90;99.90;;;;;;5012054;28;20444;-87
2022/10/21 09:19:42;;;;;;;5.43;2.90;;;14.90;99.90;;;;;;5013341;28;21014;-89
2022/10/21 09:22:20;;;;;;;5.13;2.90;;;14.90;99.90;;;;;;5033172;28;20413;-88
2022/10/21 09:24:52;;;;;;;3.03;2.57;;;14.90;99.90;;;;;;5015738;28;20417;-86
2022/10/21 09:27:19;;;;;;;5.63;2.53;;;14.90;99.90;;;;;;5033500;28;20404;-87
2022/10/21 09:29:53;;;;;;;4.43;2.50;;;14.90;99.90;;;;;;5033591;28;20842;-87
2022/10/21 09:32:22;;;;;;;3.20;2.57;;;14.90;99.90;;;;;;5015888;28;20456;-87
2022/10/21 09:34:59;;;;;;;5.77;3.00;;;14.90;99.90;;;;;;5033778;28;20492;-85
2022/10/21 09:37:34;;;;;;;2.10;1.80;;;14.90;99.90;;;;;;5016745;28;20425;-86
2022/10/21 09:40:14;;;;;;;3.77;2.20;;;14.90;99.90;;;;;;5037646;28;20488;-86
2022/10/21 09:42:39;;;;;;;2.10;1.87;;;15.00;99.90;;;;;;5037315;28;20405;-87
2022/10/21 09:45:11;;;;;;;5.57;2.00;;;15.00;99.90;;;;;;5019598;28;20444;-87
2022/10/21 09:47:37;;;;;;;2.43;1.93;;;15.00;99.90;;;;;;5037037;28;20202;-86
2022/10/21 09:50:04;;;;;;;2.93;1.70;;;15.10;99.90;;;;;;5037302;28;20435;-88
2022/10/21 09:52:33;;;;;;;3.70;1.83;;;15.10;99.90;;;;;;5019512;28;20604;-86
2022/10/21 09:54:59;;;;;;;3.70;2.10;;;15.20;99.90;;;;;;5037068;28;20409;-87
2022/10/21 09:57:43;;;;;;;3.10;2.60;;;15.20;99.90;;;;;;5002684;28;20787;-86
2022/10/21 10:00:09;;;;;;;1.63;1.50;;;15.20;99.90;;;;;;5019250;28;20177;-87
2022/10/21 10:02:44;;;;;;;5.20;2.20;;;15.20;99.90;;;;;;5019287;28;20784;-86
2022/10/21 10:05:37;;;;;;;2.07;1.60;;;15.10;99.90;;;;;;5019118;28;20387;-85
2022/10/21 10:08:34;;;;;;;6.33;2.00;;;15.20;99.90;;;;;;5022838;28;20416;-87
2022/10/21 10:11:07;;;;;;;3.20;1.90;;;15.10;99.90;;;;;;5016239;28;20731;-86
2022/10/21 10:13:33;;;;;;;5.00;2.20;;;15.10;99.90;;;;;;5018295;28;20468;-87
2022/10/21 10:16:30;;;;;;;3.07;1.60;;;15.10;99.90;;;;;;5036665;28;20409;-88
2022/10/21 10:19:16;;;;;;;5.20;1.93;;;15.10;99.90;;;;;;5036913;28;20178;-88
2022/10/21 10:21:42;;;;;;;3.43;2.83;;;15.10;99.90;;;;;;5037606;28;20417;-87
2022/10/21 10:24:16;;;;;;;2.27;2.00;;;15.20;99.90;;;;;;5018614;28;20420;-87
2022/10/21 10:26:42;;;;;;;4.60;1.83;;;15.20;99.90;;;;;;5019025;28;20913;-87
2022/10/21 10:29:28;;;;;;;3.13;2.13;;;15.20;99.90;;;;;;5002458;28;20428;-87
2022/10/21 10:31:59;;;;;;;3.90;2.10;;;15.20;99.90;;;;;;5035708;28;20468;-87
2022/10/21 10:34:31;;;;;;;2.43;1.70;;;15.20;99.90;;;;;;5036436;28;20401;-88
2022/10/21 10:37:16;;;;;;;2.20;2.00;;;15.20;99.90;;;;;;5035632;28;20785;-87
2022/10/21 10:39:45;;;;;;;4.87;1.83;;;15.20;99.90;;;;;;5037244;28;20526;-87
2022/10/21 10:42:20;;;;;;;4.90;2.80;;;15.20;99.90;;;;;;5018368;28;20819;-87
2022/10/21 10:44:46;;;;;;;4.83;2.60;;;15.20;99.90;;;;;;5018891;28;20428;-88
2022/10/21 10:47:23;;;;;;;3.80;2.50;;;15.30;99.90;;;;;;5002491;28;20421;-88
2022/10/21 10:49:49;;;;;;;4.07;2.30;;;15.20;99.90;;;;;;5034297;28;20905;-88
2022/10/21 10:52:21;;;;;;;6.20;2.30;;;15.30;99.90;;;;;;5036340;28;20487;-88
2022/10/21 10:54:48;;;;;;;4.23;2.63;;;15.40;99.90;;;;;;5019202;28;20539;-89
2022/10/21 10:57:18;;;;;;;2.40;2.10;;;15.40;99.90;;;;;;5002277;28;20392;-89
2022/10/21 10:59:54;;;;;;;4.43;2.50;;;15.50;99.90;;;;;;5036043;28;20425;-89
2022/10/21 11:03:07;;;;;;;4.40;2.43;;;15.60;99.90;;;;;;5017987;28;20413;-88
2022/10/21 11:05:38;;;;;;;3.03;2.43;;;15.70;99.90;;;;;;4974876;28;20760;-88
2022/10/21 11:08:28;;;;;;;7.03;4.50;;;15.70;99.90;;;;;;5017799;28;20504;-87
2022/10/21 11:10:59;;;;;;;21.03;7.53;;;15.80;99.90;;;;;;5021142;28;20425;-88
2022/10/21 11:13:27;;;;;;;5.63;3.43;;;15.90;99.90;;;;;;5017704;28;20792;-87
2022/10/21 11:16:14;;;;;;;10.83;2.40;;;16.00;99.90;;;;;;5017500;28;20749;-88
2022/10/21 11:18:45;;;;;;;4.30;2.90;;;16.10;99.90;;;;;;5017966;28;20415;-88
2022/10/21 11:21:32;;;;;;;4.63;2.60;;;16.30;99.90;;;;;;5035239;28;20409;-88
2022/10/21 11:24:19;;;;;;;3.43;2.17;;;16.40;99.90;;;;;;5017529;28;20925;-88
2022/10/21 11:27:09;;;;;;;3.97;2.20;;;16.40;99.90;;;;;;5017210;28;20777;-88
2022/10/21 11:29:57;;;;;;;5.33;2.50;;;16.50;99.90;;;;;;5035910;28;20428;-88
2022/10/21 11:33:02;;;;;;;3.90;2.50;;;16.70;99.90;;;;;;5017664;28;20442;-89
2022/10/21 11:35:47;;;;;;;5.93;2.03;;;16.90;99.90;;;;;;5005712;28;21212;-89
2022/10/21 11:38:31;;;;;;;2.50;2.23;;;17.00;99.90;;;;;;5035024;28;20458;-89
2022/10/21 11:41:05;;;;;;;3.70;1.70;;;17.20;99.90;;;;;;5017973;28;20435;-89
2022/10/21 11:43:38;;;;;;;6.80;2.20;;;17.50;99.90;;;;;;5035031;28;20405;-89
2022/10/21 11:46:24;;;;;;;4.70;1.80;;;17.90;99.90;;;;;;5035523;28;20372;-89
2022/10/21 11:48:59;;;;;;;6.57;1.83;;;18.20;99.90;;;;;;5034800;28;20386;-90
2022/10/21 11:51:40;;;;;;;3.20;2.13;;;18.40;99.90;;;;;;5017027;28;20463;-90
2022/10/21 11:54:15;;;;;;;4.90;1.80;;;18.80;99.90;;;;;;5035181;28;20487;-90
2022/10/21 11:56:48;;;;;;;3.47;1.47;;;19.20;99.90;;;;;;5017706;28;20425;-90
2022/10/21 11:59:31;;;;;;;4.50;1.43;;;19.60;99.90;;;;;;5017559;28;20443;-90
2022/10/21 12:02:18;;;;;;;1.83;1.33;;;20.10;99.90;;;;;;5017670;28;20464;-91
2022/10/21 12:04:53;;;;;;;1.20;1.10;;;20.50;99.90;;;;;;5042536;28;20439;-90
2022/10/21 12:08:03;;;;;;;1.20;1.10;;;20.90;99.90;;;;;;5017788;28;20478;-91
2022/10/21 12:10:51;;;;;;;2.67;1.63;;;21.30;99.90;;;;;;5010924;28;20502;-91
2022/10/21 12:13:46;;;;;;;1.87;1.00;;;21.40;99.90;;;;;;5018358;28;20476;-92
2022/10/21 12:16:33;;;;;;;1.27;1.17;;;21.60;99.90;;;;;;5033983;28;20486;-88
2022/10/21 12:19:03;;;;;;;4.83;1.60;;;21.90;99.90;;;;;;5031510;28;20432;-90
2022/10/21 12:21:34;;;;;;;1.60;1.33;;;21.90;99.90;;;;;;5032871;28;20360;-89
2022/10/21 12:24:29;;;;;;;3.20;1.23;;;21.80;99.90;;;;;;5015974;28;20470;-88
2022/10/21 12:26:58;;;;;;;3.90;1.37;;;21.80;99.90;;;;;;5015367;28;20835;-89
2022/10/21 12:29:41;;;;;;;1.77;1.03;;;21.70;99.90;;;;;;5032454;28;20611;-87
2022/10/21 12:32:38;;;;;;;1.20;1.00;;;21.50;99.90;;;;;;5034048;28;20442;-88
2022/10/21 12:35:04;;;;;;;1.97;1.40;;;21.10;99.90;;;;;;5032646;28;20439;-87
2022/10/21 12:37:49;;;;;;;3.20;1.87;;;21.10;99.90;;;;;;5012797;28;20410;-88
2022/10/21 12:40:36;;;;;;;3.57;1.30;;;21.00;99.90;;;;;;5015377;28;20399;-89
2022/10/21 12:43:25;;;;;;;1.60;1.33;;;20.90;99.90;;;;;;5014760;28;20410;-88
2022/10/21 12:46:07;;;;;;;3.63;1.53;;;20.90;99.90;;;;;;5016594;28;20410;-91
2022/10/21 12:48:41;;;;;;;1.67;1.33;;;20.70;99.90;;;;;;5015691;28;20432;-90
2022/10/21 12:51:24;;;;;;;3.83;1.20;;;20.70;99.90;;;;;;5032336;28;20405;-89
2022/10/21 12:53:56;;;;;;;2.97;1.57;;;20.60;99.90;;;;;;5016538;28;20399;-90
2022/10/21 12:56:50;;;;;;;1.53;1.20;;;20.50;99.90;;;;;;5005654;28;20430;-89
2022/10/21 12:59:33;;;;;;;1.57;1.20;;;20.50;99.90;;;;;;4997737;28;20443;-90
2022/10/21 13:02:04;;;;;;;1.67;1.10;;;20.40;99.90;;;;;;5033779;28;20443;-91
2022/10/21 13:04:33;;;;;;;1.60;1.30;;;20.40;99.90;;;;;;5033505;28;20805;-91
2022/10/21 13:07:03;;;;;;;1.97;1.00;;;20.40;99.90;;;;;;5015889;28;20404;-91
2022/10/21 13:10:07;;;;;;;2.80;0.97;;;20.50;99.90;;;;;;5033392;28;20406;-91